Time;durP1;ratioP1;P1;durP2;ratioP2;P2;SDS_P1;SDS_P2;PMS_P1;PMS_P2;Temp;Humidity;BMP_temperature;BMP_pressure;BME280_temperature;BME280_humidity;BME280_pressure;Samples;Min_cycle;Max_cycle;Signal;HPM_P1;HPM_P2
2022/03/05 00:01:04;;;;;;;12.50;7.90;;;;;;101102.11;;;;107153;1275;64834;-40
2022/03/05 00:03:32;;;;;;;11.70;8.10;;;;;;101098.34;;;;107165;1274;64023;-38
2022/03/05 00:05:59;;;;;;;10.60;7.50;;;;;;101100.39;;;;107147;1277;64871;-35
2022/03/05 00:08:26;;;;;;;10.40;7.70;;;;;;101098.27;;;;107163;1276;65140;-35
2022/03/05 00:10:54;;;;;;;10.40;7.30;;;;;;101094.80;;;;107112;1275;64889;-35
2022/03/05 00:13:22;;;;;;;10.90;7.20;;;;;;101098.05;;;;107116;1276;62332;-34
2022/03/05 00:15:49;;;;;;;11.30;7.00;;;;;;101096.85;;;;107173;1276;64954;-38
2022/03/05 00:18:16;;;;;;;10.60;7.00;;;;;;101096.27;;;;107171;1276;64914;-38
2022/03/05 00:20:45;;;;;;;10.20;6.80;;;;;;101093.18;;;;107151;1277;64727;-35
2022/03/05 00:23:16;;;;;;;10.10;7.00;;;;;;101092.23;;;;107136;1276;64741;-40
2022/03/05 00:25:44;;;;;;;11.70;7.00;;;;;;101093.83;;;;107080;1276;64868;-39
2022/03/05 00:28:12;;;;;;;10.90;7.00;;;;;;101093.39;;;;107183;1274;65850;-35
2022/03/05 00:30:41;;;;;;;8.80;6.30;;;;;;101090.50;;;;107181;1274;67510;-35
2022/03/05 00:33:08;;;;;;;9.90;6.60;;;;;;101090.38;;;;107105;1274;64941;-39
2022/03/05 00:35:36;;;;;;;8.40;6.00;;;;;;101090.91;;;;107098;1274;64776;-39
2022/03/05 00:38:03;;;;;;;10.80;6.80;;;;;;101090.15;;;;107153;1273;64741;-35
2022/03/05 00:40:31;;;;;;;9.30;6.20;;;;;;101091.88;;;;107131;1274;64787;-35
2022/03/05 00:42:58;;;;;;;8.70;6.50;;;;;;101092.27;;;;107168;1273;66415;-35
2022/03/05 00:45:25;;;;;;;9.00;6.00;;;;;;101092.45;;;;107164;1274;63291;-35
2022/03/05 00:47:52;;;;;;;9.10;6.10;;;;;;101092.58;;;;107166;1273;64863;-40
2022/03/05 00:50:20;;;;;;;9.30;5.50;;;;;;101088.90;;;;107157;1274;64769;-39
2022/03/05 00:52:47;;;;;;;8.60;5.40;;;;;;101092.71;;;;107166;1273;64868;-36
2022/03/05 00:55:14;;;;;;;8.30;5.00;;;;;;101090.31;;;;107154;1273;64740;-34
2022/03/05 00:57:41;;;;;;;10.10;6.00;;;;;;101086.98;;;;107092;1273;64836;-35
2022/03/05 01:00:11;;;;;;;9.70;5.30;;;;;;101083.98;;;;107140;1274;64953;-35
2022/03/05 01:02:42;;;;;;;9.00;5.70;;;;;;101082.19;;;;107166;1274;64887;-35
2022/03/05 01:05:10;;;;;;;8.40;5.00;;;;;;101078.40;;;;107169;1273;64727;-35
2022/03/05 01:07:38;;;;;;;8.30;5.10;;;;;;101075.05;;;;107187;1273;65292;-35
2022/03/05 01:10:07;;;;;;;9.40;5.50;;;;;;101082.23;;;;107201;1273;64885;-35
2022/03/05 01:12:35;;;;;;;7.40;5.10;;;;;;101085.77;;;;107209;1273;64920;-40
2022/03/05 01:15:04;;;;;;;8.90;5.00;;;;;;101084.31;;;;107173;1273;64936;-38
2022/03/05 01:17:32;;;;;;;8.00;5.20;;;;;;101085.14;;;;107132;1274;64885;-40
2022/03/05 01:19:59;;;;;;;7.10;4.90;;;;;;101083.76;;;;107166;1274;64741;-40
2022/03/05 01:22:27;;;;;;;6.80;4.50;;;;;;101084.14;;;;107034;1274;65306;-39
2022/03/05 01:24:54;;;;;;;8.40;4.90;;;;;;101080.95;;;;107139;1273;64914;-35
2022/03/05 01:27:22;;;;;;;7.60;4.90;;;;;;101082.54;;;;107135;1274;63597;-36
2022/03/05 01:29:50;;;;;;;7.40;4.50;;;;;;101081.56;;;;107156;1274;64859;-35
2022/03/05 01:32:17;;;;;;;8.00;4.90;;;;;;101084.58;;;;107181;1273;65907;-35
2022/03/05 01:34:45;;;;;;;9.00;4.60;;;;;;101085.98;;;;107097;1274;64885;-35
2022/03/05 01:37:12;;;;;;;8.40;4.80;;;;;;101083.02;;;;107170;1273;64807;-35
2022/03/05 01:39:41;;;;;;;7.20;4.70;;;;;;101083.23;;;;107180;1273;64888;-41
2022/03/05 01:42:08;;;;;;;6.50;4.50;;;;;;101084.34;;;;107179;1273;64762;-39
2022/03/05 01:44:35;;;;;;;7.50;4.70;;;;;;101088.00;;;;107158;1273;64933;-35
2022/03/05 01:47:04;;;;;;;8.00;4.80;;;;;;101088.15;;;;107160;1273;64766;-35
2022/03/05 01:49:32;;;;;;;6.90;4.50;;;;;;101090.63;;;;107220;1273;64713;-34
2022/03/05 01:51:59;;;;;;;7.30;4.20;;;;;;101092.34;;;;107171;1273;64881;-35
2022/03/05 01:54:26;;;;;;;6.20;3.90;;;;;;101097.20;;;;107179;1273;64734;-39
2022/03/05 01:56:54;;;;;;;6.50;4.00;;;;;;101095.66;;;;107123;1273;65960;-41
2022/03/05 01:59:22;;;;;;;5.70;3.60;;;;;;101098.18;;;;107189;1273;64842;-35
2022/03/05 02:01:49;;;;;;;7.20;4.20;;;;;;101093.71;;;;107167;1273;64915;-34
2022/03/05 02:04:17;;;;;;;6.80;4.10;;;;;;101094.08;;;;107147;1273;64969;-35
2022/03/05 02:06:45;;;;;;;6.00;3.90;;;;;;101092.64;;;;107191;1274;64865;-34
2022/03/05 02:09:12;;;;;;;7.00;4.20;;;;;;101097.09;;;;107186;1273;66409;-39
2022/03/05 02:11:39;;;;;;;6.70;3.80;;;;;;101097.58;;;;107144;1273;65006;-39
2022/03/05 02:14:07;;;;;;;6.60;4.10;;;;;;101098.77;;;;107145;1273;64735;-40
2022/03/05 02:16:34;;;;;;;7.20;3.90;;;;;;101100.73;;;;107155;1273;65925;-39
2022/03/05 02:19:04;;;;;;;7.70;3.80;;;;;;101098.89;;;;107180;1273;64745;-40
2022/03/05 02:21:31;;;;;;;6.70;4.30;;;;;;101097.79;;;;107199;1273;65468;-39
2022/03/05 02:23:59;;;;;;;7.00;4.30;;;;;;101095.65;;;;107169;1274;64865;-40
2022/03/05 02:26:26;;;;;;;6.00;3.80;;;;;;101094.67;;;;107142;1273;64854;-39
2022/03/05 02:28:53;;;;;;;6.80;3.80;;;;;;101095.91;;;;107090;1274;64867;-34
2022/03/05 02:31:21;;;;;;;6.80;3.90;;;;;;101094.73;;;;107179;1273;64869;-35
2022/03/05 02:33:52;;;;;;;6.60;3.90;;;;;;101091.09;;;;107132;1274;67540;-34
2022/03/05 02:36:21;;;;;;;7.30;4.30;;;;;;101091.76;;;;107134;1273;64801;-34
2022/03/05 02:38:52;;;;;;;6.90;4.10;;;;;;101089.89;;;;107189;1274;63137;-35
2022/03/05 02:41:19;;;;;;;7.20;3.90;;;;;;101089.44;;;;107129;1273;64769;-35
2022/03/05 02:43:46;;;;;;;7.40;4.20;;;;;;101090.88;;;;107171;1273;64849;-39
2022/03/05 02:46:14;;;;;;;6.80;4.30;;;;;;101090.59;;;;107154;1273;65832;-38
2022/03/05 02:48:41;;;;;;;7.60;4.10;;;;;;101091.80;;;;107159;1273;64769;-39
2022/03/05 02:51:08;;;;;;;7.00;4.00;;;;;;101093.08;;;;107141;1274;64853;-39
2022/03/05 02:53:36;;;;;;;7.80;4.60;;;;;;101093.53;;;;107138;1273;64838;-37
2022/03/05 02:56:05;;;;;;;6.30;3.90;;;;;;101093.50;;;;107146;1273;64775;-39
2022/03/05 02:58:32;;;;;;;6.70;4.00;;;;;;101090.56;;;;107190;1273;66126;-35
2022/03/05 03:00:59;;;;;;;7.20;4.40;;;;;;101089.92;;;;107153;1273;65023;-34
2022/03/05 03:03:27;;;;;;;7.70;4.30;;;;;;101093.17;;;;107182;1274;63794;-39
2022/03/05 03:05:55;;;;;;;6.70;4.10;;;;;;101100.59;;;;107134;1273;64753;-39
2022/03/05 03:08:22;;;;;;;7.20;3.90;;;;;;101102.23;;;;107192;1273;64869;-35
2022/03/05 03:10:49;;;;;;;6.60;4.20;;;;;;101103.80;;;;107092;1274;64892;-35
2022/03/05 03:13:17;;;;;;;6.40;4.30;;;;;;101102.39;;;;107026;1274;64887;-35
2022/03/05 03:15:44;;;;;;;6.80;3.90;;;;;;101097.21;;;;107153;1273;64851;-36
2022/03/05 03:18:12;;;;;;;6.20;3.70;;;;;;101095.72;;;;107142;1274;64858;-35
2022/03/05 03:20:39;;;;;;;6.40;3.80;;;;;;101097.02;;;;107150;1273;65011;-35
2022/03/05 03:23:06;;;;;;;6.30;3.70;;;;;;101098.84;;;;107161;1273;65994;-40
2022/03/05 03:25:33;;;;;;;6.70;4.00;;;;;;101092.55;;;;107045;1274;64748;-39
2022/03/05 03:28:00;;;;;;;7.20;3.70;;;;;;101094.65;;;;107114;1273;64691;-40
2022/03/05 03:30:28;;;;;;;7.10;3.90;;;;;;101093.34;;;;107090;1274;64750;-42
2022/03/05 03:32:55;;;;;;;6.50;3.80;;;;;;101095.05;;;;107162;1274;64645;-39
2022/03/05 03:35:22;;;;;;;6.70;3.90;;;;;;101096.05;;;;107151;1273;66195;-39
2022/03/05 03:37:50;;;;;;;7.90;4.10;;;;;;101098.81;;;;107166;1274;64948;-40
2022/03/05 03:40:18;;;;;;;6.60;3.60;;;;;;101100.17;;;;107158;1273;64741;-38
2022/03/05 03:42:49;;;;;;;7.50;4.30;;;;;;101099.95;;;;107145;1274;64911;-34
2022/03/05 03:45:17;;;;;;;6.30;3.60;;;;;;101102.26;;;;107172;1273;64810;-35
2022/03/05 03:47:49;;;;;;;6.10;3.60;;;;;;101103.62;;;;107203;1273;64924;-39
2022/03/05 03:50:20;;;;;;;7.00;3.90;;;;;;101102.91;;;;107150;1274;64849;-39
2022/03/05 03:52:48;;;;;;;6.10;3.40;;;;;;101103.84;;;;107189;1274;64719;-34
2022/03/05 03:55:19;;;;;;;6.10;3.50;;;;;;101109.14;;;;107181;1273;64873;-35
2022/03/05 03:57:46;;;;;;;6.60;3.90;;;;;;101112.21;;;;107138;1274;64889;-35
2022/03/05 04:00:16;;;;;;;7.30;3.90;;;;;;101113.56;;;;107162;1273;66140;-35
2022/03/05 04:02:44;;;;;;;5.70;3.60;;;;;;101111.45;;;;107115;1274;64727;-39
2022/03/05 04:05:12;;;;;;;7.30;3.50;;;;;;101110.23;;;;107178;1273;64857;-39
2022/03/05 04:10:25;;;;;;;5.50;3.20;;;;;;101116.30;;;;107176;1273;64714;-35
2022/03/05 04:12:53;;;;;;;6.10;3.30;;;;;;101116.06;;;;107150;1273;66486;-34
2022/03/05 04:15:21;;;;;;;5.60;3.50;;;;;;101117.05;;;;107122;1274;64873;-35
2022/03/05 04:17:48;;;;;;;6.00;3.50;;;;;;101120.25;;;;107174;1276;64723;-35
2022/03/05 04:20:15;;;;;;;5.60;3.80;;;;;;101120.02;;;;107148;1273;64737;-35
2022/03/05 04:22:42;;;;;;;5.80;3.00;;;;;;101120.98;;;;107162;1273;64771;-35
2022/03/05 04:25:10;;;;;;;6.50;3.40;;;;;;101120.80;;;;106917;1273;321789;-35
2022/03/05 04:27:37;;;;;;;6.00;3.40;;;;;;101120.54;;;;107153;1273;64845;-39
2022/03/05 04:30:05;;;;;;;6.30;3.10;;;;;;101122.25;;;;107146;1273;65441;-40
2022/03/05 04:32:32;;;;;;;5.40;3.00;;;;;;101122.86;;;;107178;1273;64761;-39
2022/03/05 04:35:00;;;;;;;6.30;3.30;;;;;;101125.38;;;;107176;1274;65286;-39
2022/03/05 04:37:28;;;;;;;6.30;3.20;;;;;;101123.70;;;;107169;1273;67167;-35
2022/03/05 04:39:55;;;;;;;5.70;3.20;;;;;;101125.80;;;;107078;1274;64884;-35
2022/03/05 04:42:22;;;;;;;6.80;3.10;;;;;;101121.86;;;;107132;1273;64858;-33
2022/03/05 04:44:49;;;;;;;5.80;3.20;;;;;;101125.97;;;;107142;1273;64730;-35
2022/03/05 04:47:16;;;;;;;5.50;2.70;;;;;;101125.34;;;;107144;1274;64753;-36
2022/03/05 04:49:44;;;;;;;5.90;3.30;;;;;;101126.75;;;;107149;1273;67010;-39
2022/03/05 04:52:11;;;;;;;5.50;2.60;;;;;;101127.45;;;;107133;1274;64856;-39
2022/03/05 04:54:38;;;;;;;5.60;2.90;;;;;;101126.98;;;;107185;1273;64953;-42
2022/03/05 04:57:06;;;;;;;5.70;3.00;;;;;;101131.14;;;;107119;1273;64747;-38
2022/03/05 04:59:33;;;;;;;5.40;2.70;;;;;;101131.48;;;;107196;1274;64860;-34
2022/03/05 05:02:01;;;;;;;5.80;3.30;;;;;;101133.27;;;;107203;1273;66361;-35
2022/03/05 05:04:28;;;;;;;6.00;3.10;;;;;;101137.25;;;;107159;1274;64770;-34
2022/03/05 05:06:55;;;;;;;5.50;2.90;;;;;;101140.63;;;;107111;1275;64833;-33
2022/03/05 05:09:22;;;;;;;5.20;2.60;;;;;;101140.66;;;;107160;1273;64728;-38
2022/03/05 05:11:49;;;;;;;5.90;2.70;;;;;;101141.32;;;;107157;1275;64777;-39
2022/03/05 05:14:16;;;;;;;5.80;2.80;;;;;;101139.66;;;;107110;1273;67354;-39
2022/03/05 05:16:43;;;;;;;5.60;3.00;;;;;;101137.63;;;;107153;1273;64771;-38
2022/03/05 05:19:27;;;;;;;5.30;3.00;;;;;;101139.09;;;;107195;1274;64783;-38
2022/03/05 05:22:03;;;;;;;4.90;2.70;;;;;;101142.95;;;;107157;1273;64843;-38
2022/03/05 05:24:34;;;;;;;5.20;2.70;;;;;;101144.48;;;;107174;1274;64966;-38
2022/03/05 05:27:03;;;;;;;4.80;2.60;;;;;;101148.23;;;;107169;1274;66201;-38
2022/03/05 05:29:30;;;;;;;5.50;2.70;;;;;;101148.55;;;;107199;1273;65011;-38
2022/03/05 05:31:58;;;;;;;4.60;2.40;;;;;;101149.99;;;;107172;1273;64728;-38
2022/03/05 05:34:26;;;;;;;5.00;2.40;;;;;;101155.52;;;;107124;1276;64784;-38
2022/03/05 05:36:53;;;;;;;4.60;2.60;;;;;;101156.98;;;;107181;1273;64766;-38
2022/03/05 05:39:20;;;;;;;4.70;2.40;;;;;;101159.95;;;;107175;1273;66453;-38
2022/03/05 05:41:47;;;;;;;5.00;2.60;;;;;;101166.17;;;;107129;1273;64766;-38
2022/03/05 05:44:15;;;;;;;4.50;2.30;;;;;;101173.08;;;;107170;1273;64870;-38
2022/03/05 05:46:42;;;;;;;5.00;2.60;;;;;;101173.59;;;;107065;1274;64914;-38
2022/03/05 05:49:09;;;;;;;5.50;2.60;;;;;;101173.84;;;;107169;1273;64773;-33
2022/03/05 05:51:39;;;;;;;4.90;2.60;;;;;;101175.86;;;;107149;1273;65222;-34
2022/03/05 05:54:06;;;;;;;5.60;2.80;;;;;;101179.16;;;;107117;1273;64854;-34
2022/03/05 05:56:33;;;;;;;7.40;2.50;;;;;;101179.15;;;;107089;1274;64885;-34
2022/03/05 05:59:00;;;;;;;5.20;2.50;;;;;;101180.23;;;;107176;1274;64767;-38
2022/03/05 06:01:28;;;;;;;5.20;2.60;;;;;;101182.61;;;;107165;1274;64743;-38
2022/03/05 06:03:56;;;;;;;4.60;2.10;;;;;;101183.03;;;;107156;1274;66954;-42
2022/03/05 06:06:23;;;;;;;4.60;2.20;;;;;;101181.61;;;;107143;1273;64901;-38
2022/03/05 06:08:51;;;;;;;4.20;2.00;;;;;;101185.49;;;;107123;1274;64704;-34
2022/03/05 06:11:18;;;;;;;4.50;2.20;;;;;;101187.56;;;;107144;1274;64964;-34
2022/03/05 06:13:45;;;;;;;5.30;2.30;;;;;;101190.23;;;;107181;1273;64775;-39
2022/03/05 06:16:13;;;;;;;5.10;2.30;;;;;;101190.10;;;;107158;1273;66403;-38
2022/03/05 06:18:41;;;;;;;5.20;2.60;;;;;;101193.19;;;;107169;1274;65601;-39
2022/03/05 06:21:08;;;;;;;4.40;2.20;;;;;;101193.64;;;;107148;1273;64942;-39
2022/03/05 06:23:37;;;;;;;4.30;2.20;;;;;;101194.55;;;;107161;1274;65576;-39
2022/03/05 06:26:05;;;;;;;4.70;2.40;;;;;;101201.09;;;;107209;1274;64764;-38
2022/03/05 06:28:33;;;;;;;5.40;2.40;;;;;;101202.84;;;;107202;1273;64452;-38
2022/03/05 06:31:02;;;;;;;4.30;2.20;;;;;;101204.60;;;;107124;1273;64734;-38
2022/03/05 06:33:30;;;;;;;4.60;2.00;;;;;;101205.95;;;;107102;1275;64835;-38
2022/03/05 06:35:58;;;;;;;4.60;2.00;;;;;;101206.40;;;;107136;1274;64823;-38
2022/03/05 06:38:25;;;;;;;4.90;2.40;;;;;;101205.51;;;;107139;1274;64843;-39
2022/03/05 06:40:53;;;;;;;4.50;2.20;;;;;;101207.58;;;;107188;1274;65022;-39
2022/03/05 06:43:20;;;;;;;4.70;2.30;;;;;;101209.27;;;;107146;1274;64773;-34
2022/03/05 06:45:48;;;;;;;4.70;2.10;;;;;;101210.06;;;;107111;1274;64821;-34
2022/03/05 06:48:15;;;;;;;4.90;2.40;;;;;;101209.83;;;;107178;1274;64890;-38
2022/03/05 06:50:42;;;;;;;4.80;2.00;;;;;;101212.06;;;;107134;1274;64748;-38
2022/03/05 06:53:10;;;;;;;4.70;2.20;;;;;;101216.08;;;;107121;1277;65888;-34
2022/03/05 06:55:39;;;;;;;4.00;2.10;;;;;;101215.14;;;;107142;1273;64838;-34
2022/03/05 06:58:06;;;;;;;5.00;2.30;;;;;;101218.33;;;;107194;1273;64871;-38
2022/03/05 07:00:33;;;;;;;4.00;1.90;;;;;;101222.72;;;;106983;1274;64880;-38
2022/03/05 07:03:01;;;;;;;3.90;2.20;;;;;;101227.13;;;;107072;1277;64995;-39
2022/03/05 07:05:28;;;;;;;3.90;2.20;;;;;;101223.63;;;;107141;1273;67166;-38
2022/03/05 07:07:55;;;;;;;3.70;1.90;;;;;;101223.33;;;;107167;1274;64807;-38
2022/03/05 07:10:23;;;;;;;4.80;2.10;;;;;;101223.17;;;;107156;1273;64785;-38
2022/03/05 07:12:50;;;;;;;4.70;2.20;;;;;;101224.32;;;;107112;1274;65009;-38
2022/03/05 07:15:17;;;;;;;4.10;2.00;;;;;;101223.67;;;;107117;1274;64763;-38
2022/03/05 07:17:49;;;;;;;5.20;2.40;;;;;;101226.24;;;;107128;1273;66390;-35
2022/03/05 07:20:18;;;;;;;4.60;2.30;;;;;;101225.39;;;;107113;1276;64754;-35
2022/03/05 07:22:45;;;;;;;4.20;2.00;;;;;;101226.17;;;;107161;1274;64947;-35
2022/03/05 07:25:14;;;;;;;4.50;2.00;;;;;;101227.21;;;;107119;1274;64981;-35
2022/03/05 07:27:42;;;;;;;4.00;2.20;;;;;;101227.74;;;;107084;1276;64893;-38
2022/03/05 07:30:11;;;;;;;4.10;1.90;;;;;;101226.80;;;;107159;1274;65912;-39
2022/03/05 07:32:38;;;;;;;5.10;2.60;;;;;;101229.52;;;;106971;1274;64880;-35
2022/03/05 07:35:07;;;;;;;4.50;1.90;;;;;;101235.09;;;;107172;1273;64712;-35
2022/03/05 07:37:34;;;;;;;3.60;1.60;;;;;;101237.92;;;;107178;1273;64785;-34
2022/03/05 07:40:04;;;;;;;4.10;2.00;;;;;;101236.50;;;;107168;1274;64737;-34
2022/03/05 07:42:31;;;;;;;4.30;1.80;;;;;;101238.66;;;;107147;1276;66500;-33
2022/03/05 07:44:58;;;;;;;4.00;1.80;;;;;;101239.42;;;;107144;1273;64971;-34
2022/03/05 07:47:25;;;;;;;4.20;2.00;;;;;;101241.50;;;;107142;1273;64763;-36
2022/03/05 07:49:52;;;;;;;3.90;1.80;;;;;;101240.12;;;;107132;1273;64968;-39
2022/03/05 07:52:20;;;;;;;4.10;2.00;;;;;;101241.41;;;;107101;1274;64753;-39
2022/03/05 07:54:47;;;;;;;4.40;1.90;;;;;;101243.31;;;;107103;1274;66490;-40
2022/03/05 07:57:15;;;;;;;4.30;2.20;;;;;;101245.57;;;;107178;1273;64727;-40
2022/03/05 07:59:42;;;;;;;4.40;2.10;;;;;;101245.26;;;;107205;1273;64829;-39
2022/03/05 08:02:10;;;;;;;4.20;2.00;;;;;;101245.82;;;;107174;1273;64875;-40
2022/03/05 08:04:37;;;;;;;4.70;2.00;;;;;;101241.64;;;;107159;1273;64750;-34
2022/03/05 08:07:07;;;;;;;3.80;1.80;;;;;;101242.22;;;;107146;1274;65900;-33
2022/03/05 08:09:36;;;;;;;4.90;2.30;;;;;;101244.36;;;;107162;1273;64737;-40
2022/03/05 08:12:04;;;;;;;4.40;2.10;;;;;;101244.61;;;;107142;1274;64877;-41
2022/03/05 08:14:32;;;;;;;4.20;2.10;;;;;;101245.52;;;;107182;1273;64872;-35
2022/03/05 08:17:00;;;;;;;4.50;2.10;;;;;;101245.44;;;;107187;1273;64882;-34
2022/03/05 08:19:27;;;;;;;3.70;1.70;;;;;;101246.84;;;;107198;1274;66081;-39
2022/03/05 08:21:54;;;;;;;4.10;1.90;;;;;;101249.73;;;;107135;1273;64709;-39
2022/03/05 08:24:22;;;;;;;4.20;1.90;;;;;;101249.84;;;;107170;1274;64952;-34
2022/03/05 08:26:49;;;;;;;4.80;2.00;;;;;;101252.85;;;;107154;1273;64731;-33
2022/03/05 08:29:16;;;;;;;5.70;2.20;;;;;;101256.58;;;;107160;1274;64807;-39
2022/03/05 08:31:43;;;;;;;4.60;2.20;;;;;;101253.02;;;;107135;1274;64718;-39
2022/03/05 08:34:11;;;;;;;4.30;2.10;;;;;;101252.42;;;;107147;1273;64864;-40
2022/03/05 08:36:38;;;;;;;4.30;2.00;;;;;;101249.46;;;;107099;1274;64827;-39
2022/03/05 08:39:06;;;;;;;4.00;2.00;;;;;;101253.16;;;;107087;1274;64779;-34
2022/03/05 08:41:34;;;;;;;3.90;1.80;;;;;;101255.77;;;;107159;1274;64965;-37
2022/03/05 08:44:01;;;;;;;3.80;1.90;;;;;;101263.06;;;;107165;1273;66089;-34
2022/03/05 08:46:28;;;;;;;4.30;1.90;;;;;;101264.67;;;;107150;1273;64868;-34
2022/03/05 08:48:55;;;;;;;4.40;2.20;;;;;;101263.86;;;;107139;1274;64755;-34
2022/03/05 08:51:23;;;;;;;4.80;2.10;;;;;;101264.73;;;;107153;1274;64995;-35
2022/03/05 08:53:50;;;;;;;5.60;2.20;;;;;;101262.83;;;;107176;1274;64747;-39
2022/03/05 08:56:19;;;;;;;4.90;2.70;;;;;;101261.27;;;;107094;1277;65364;-39
2022/03/05 08:58:46;;;;;;;4.70;2.70;;;;;;101262.70;;;;107080;1274;64892;-33
2022/03/05 09:01:14;;;;;;;5.00;2.10;;;;;;101268.05;;;;107150;1274;64841;-33
2022/03/05 09:03:42;;;;;;;5.90;3.00;;;;;;101266.02;;;;107181;1274;64748;-38
2022/03/05 09:06:12;;;;;;;4.80;2.70;;;;;;101262.89;;;;107167;1274;64851;-38
2022/03/05 09:08:39;;;;;;;6.20;2.90;;;;;;101263.80;;;;107063;1274;67531;-34
2022/03/05 09:11:07;;;;;;;5.40;2.90;;;;;;101264.41;;;;107150;1273;64994;-34
2022/03/05 09:13:34;;;;;;;5.80;3.20;;;;;;101264.52;;;;107172;1273;64885;-39
2022/03/05 09:16:01;;;;;;;5.10;2.90;;;;;;101267.75;;;;107173;1274;64942;-39
2022/03/05 09:18:28;;;;;;;4.70;2.70;;;;;;101267.88;;;;107087;1274;64903;-38
2022/03/05 09:20:56;;;;;;;5.70;2.90;;;;;;101265.73;;;;107180;1274;66468;-38
2022/03/05 09:23:23;;;;;;;4.70;2.60;;;;;;101265.77;;;;107136;1274;64882;-33
2022/03/05 09:25:51;;;;;;;6.50;3.20;;;;;;101267.64;;;;107076;1273;64873;-34
2022/03/05 09:28:19;;;;;;;5.80;3.00;;;;;;101268.51;;;;107093;1274;64960;-34
2022/03/05 09:30:47;;;;;;;4.80;2.50;;;;;;101269.84;;;;107182;1274;64872;-34
2022/03/05 09:33:15;;;;;;;6.30;2.20;;;;;;101270.58;;;;107218;1274;66199;-38
2022/03/05 09:35:44;;;;;;;5.50;2.50;;;;;;101271.44;;;;107194;1274;64982;-39
2022/03/05 09:38:11;;;;;;;4.90;2.20;;;;;;101273.67;;;;107176;1274;64847;-34
2022/03/05 09:40:39;;;;;;;4.90;2.50;;;;;;101275.02;;;;107170;1273;64900;-35
2022/03/05 09:43:06;;;;;;;5.50;2.70;;;;;;101276.52;;;;107090;1273;64744;-34
2022/03/05 09:45:34;;;;;;;4.90;2.40;;;;;;101282.44;;;;107098;1274;66410;-34
2022/03/05 09:48:02;;;;;;;6.00;2.80;;;;;;101284.49;;;;107074;1275;64884;-39
2022/03/05 09:50:32;;;;;;;6.10;2.90;;;;;;101285.35;;;;107158;1273;64845;-39
2022/03/05 09:53:00;;;;;;;6.40;3.00;;;;;;101287.67;;;;107119;1273;64862;-34
2022/03/05 09:55:28;;;;;;;6.30;2.90;;;;;;101287.70;;;;107220;1273;65452;-34
2022/03/05 09:57:55;;;;;;;7.50;3.20;;;;;;101291.03;;;;107170;1274;66004;-38
2022/03/05 10:00:23;;;;;;;7.00;2.90;;;;;;101290.04;;;;107122;1274;64757;-34
2022/03/05 10:02:50;;;;;;;5.90;3.30;;;;;;101296.60;;;;107157;1274;64767;-33
2022/03/05 10:05:20;;;;;;;5.70;2.60;;;;;;101295.35;;;;107138;1274;64820;-34
2022/03/05 10:08:09;;;;;;;6.10;2.80;;;;;;101296.17;;;;107103;1277;64754;-34
2022/03/05 10:10:51;;;;;;;5.40;2.90;;;;;;101296.16;;;;107169;1273;67192;-32
2022/03/05 10:13:31;;;;;;;6.00;3.10;;;;;;101303.85;;;;107206;1274;64882;-39
2022/03/05 10:16:01;;;;;;;5.90;2.80;;;;;;101304.98;;;;107164;1273;64852;-39
2022/03/05 10:18:39;;;;;;;5.90;2.70;;;;;;101307.91;;;;107211;1274;64914;-38
2022/03/05 10:21:09;;;;;;;6.70;2.90;;;;;;101308.05;;;;107146;1275;64876;-38
2022/03/05 10:23:40;;;;;;;5.70;3.00;;;;;;101307.90;;;;107197;1274;66335;-38
2022/03/05 10:26:09;;;;;;;6.80;2.80;;;;;;101310.39;;;;107176;1274;64863;-39
2022/03/05 10:28:38;;;;;;;5.60;2.40;;;;;;101309.39;;;;107190;1273;64748;-39
2022/03/05 10:31:09;;;;;;;6.00;3.10;;;;;;101308.31;;;;107194;1274;64751;-39
2022/03/05 10:33:40;;;;;;;5.00;2.30;;;;;;101310.36;;;;107208;1274;64792;-40
2022/03/05 10:36:19;;;;;;;6.90;2.50;;;;;;101313.13;;;;107131;1277;64984;-47
2022/03/05 10:38:53;;;;;;;4.80;2.50;;;;;;101315.81;;;;107193;1274;64727;-40
2022/03/05 10:41:41;;;;;;;5.50;2.40;;;;;;101315.45;;;;107109;1277;64764;-40
2022/03/05 10:44:17;;;;;;;5.10;2.50;;;;;;101312.68;;;;107156;1274;64757;-34
2022/03/05 10:47:04;;;;;;;5.30;2.40;;;;;;101312.79;;;;107199;1274;64755;-34
2022/03/05 10:49:37;;;;;;;6.10;2.50;;;;;;101311.34;;;;107182;1274;67224;-42
2022/03/05 10:52:08;;;;;;;5.50;2.40;;;;;;101309.90;;;;107148;1274;64887;-42
2022/03/05 10:54:41;;;;;;;5.50;2.40;;;;;;101309.46;;;;107179;1274;64843;-42
2022/03/05 10:57:16;;;;;;;4.90;2.70;;;;;;101311.27;;;;107114;1277;64840;-41
2022/03/05 10:59:47;;;;;;;6.50;2.60;;;;;;101310.65;;;;107191;1274;64596;-42
2022/03/05 11:02:17;;;;;;;5.30;2.40;;;;;;101311.60;;;;107199;1274;66293;-45
2022/03/05 11:04:46;;;;;;;4.90;2.20;;;;;;101307.21;;;;107181;1274;64893;-42
2022/03/05 11:07:19;;;;;;;6.10;2.70;;;;;;101305.20;;;;107203;1274;64737;-42
2022/03/05 11:09:49;;;;;;;9.30;2.80;;;;;;101307.02;;;;107180;1274;64805;-48
2022/03/05 11:12:21;;;;;;;5.20;2.30;;;;;;101300.80;;;;107183;1274;64791;-43
2022/03/05 11:14:51;;;;;;;4.90;2.40;;;;;;101297.10;;;;107201;1274;67548;-43
2022/03/05 11:17:20;;;;;;;5.80;2.40;;;;;;101293.70;;;;107168;1274;64789;-43
2022/03/05 11:19:49;;;;;;;5.00;2.20;;;;;;101296.19;;;;107207;1274;64836;-41
2022/03/05 11:22:17;;;;;;;4.90;2.30;;;;;;101291.88;;;;107134;1275;64761;-43
2022/03/05 11:24:44;;;;;;;5.20;2.30;;;;;;101298.56;;;;107228;1275;64713;-43
2022/03/05 11:27:16;;;;;;;6.20;2.30;;;;;;101296.77;;;;107196;1274;65301;-42
2022/03/05 11:30:00;;;;;;;4.40;1.80;;;;;;101296.50;;;;107201;1274;64764;-43
2022/03/05 11:32:37;;;;;;;5.80;2.30;;;;;;101294.98;;;;107211;1274;64786;-43
2022/03/05 11:35:29;;;;;;;4.50;2.00;;;;;;101293.30;;;;107119;1274;64769;-36
2022/03/05 11:37:56;;;;;;;4.40;1.80;;;;;;101291.46;;;;107182;1274;64812;-31
2022/03/05 11:40:40;;;;;;;4.90;2.30;;;;;;101288.63;;;;107208;1274;65713;-33
2022/03/05 11:43:23;;;;;;;5.90;2.80;;;;;;101286.29;;;;107173;1274;64780;-43
2022/03/05 11:45:58;;;;;;;4.20;2.00;;;;;;101284.65;;;;107131;1274;64845;-49
2022/03/05 11:48:29;;;;;;;5.20;2.00;;;;;;101284.84;;;;107172;1274;64600;-46
2022/03/05 11:50:59;;;;;;;6.50;2.40;;;;;;101282.21;;;;107187;1274;64950;-45
2022/03/05 11:53:28;;;;;;;6.10;2.20;;;;;;101281.30;;;;107128;1274;68133;-36
2022/03/05 11:55:56;;;;;;;5.40;2.40;;;;;;101282.35;;;;107222;1274;64872;-34
2022/03/05 11:58:31;;;;;;;4.80;2.00;;;;;;101281.27;;;;107092;1275;64846;-43
2022/03/05 12:01:30;;;;;;;5.20;2.00;;;;;;101282.14;;;;107181;1274;65083;-35
2022/03/05 12:03:58;;;;;;;6.10;1.90;;;;;;101277.20;;;;107147;1274;64865;-42
2022/03/05 12:06:25;;;;;;;5.70;2.50;;;;;;101277.20;;;;107174;1274;66930;-41
2022/03/05 12:08:53;;;;;;;5.50;1.90;;;;;;101279.62;;;;107141;1274;64876;-41
2022/03/05 12:11:21;;;;;;;5.20;2.20;;;;;;101277.77;;;;107143;1275;64802;-42
2022/03/05 12:13:55;;;;;;;4.80;1.80;;;;;;101275.65;;;;107190;1274;64671;-35
2022/03/05 12:16:30;;;;;;;5.00;2.00;;;;;;101270.02;;;;107181;1274;64782;-35
2022/03/05 12:18:59;;;;;;;4.70;2.00;;;;;;101269.23;;;;107211;1274;64884;-48
2022/03/05 12:21:33;;;;;;;6.00;2.30;;;;;;101270.21;;;;107123;1277;64940;-51
2022/03/05 12:24:08;;;;;;;5.30;1.90;;;;;;101272.16;;;;107186;1274;64898;-44
2022/03/05 12:26:43;;;;;;;4.70;1.70;;;;;;101269.11;;;;106869;1275;228884;-53
2022/03/05 12:29:11;;;;;;;4.30;1.70;;;;;;101266.55;;;;106966;1277;64933;-35
2022/03/05 12:31:44;;;;;;;5.10;2.20;;;;;;101265.83;;;;107224;1274;66205;-34
2022/03/05 12:34:12;;;;;;;4.30;2.00;;;;;;101263.20;;;;107141;1274;64740;-33
2022/03/05 12:36:44;;;;;;;3.90;1.70;;;;;;101262.10;;;;108103;1274;64880;-35
2022/03/05 12:39:11;;;;;;;4.90;2.00;;;;;;101262.96;;;;107112;1273;64728;-35
2022/03/05 12:41:42;;;;;;;3.90;1.60;;;;;;101258.69;;;;107043;1274;64711;-35
2022/03/05 12:44:14;;;;;;;4.90;2.00;;;;;;101256.45;;;;107200;1274;64950;-35
2022/03/05 12:46:42;;;;;;;4.60;1.70;;;;;;101256.95;;;;107162;1274;64888;-35
2022/03/05 12:49:10;;;;;;;3.70;1.60;;;;;;101260.46;;;;107172;1277;64863;-45
2022/03/05 12:51:37;;;;;;;5.20;1.90;;;;;;101256.76;;;;107164;1274;64789;-47
2022/03/05 12:54:05;;;;;;;4.90;1.80;;;;;;101256.96;;;;107228;1274;64773;-54
2022/03/05 12:56:34;;;;;;;4.80;1.90;;;;;;101255.16;;;;107195;1277;65956;-54